Albany, Georgia
Current Conditions -  °F | °C
As of 11:53 AM on Friday 28 Nov 2014 (Local Time) from KABY Reporting Station
Clear Clear  
Wind Chill: 46°   Ceiling: Unl
Heat Index: 48°   Visibility: 10mi
Dew Point: 25°   Wind: 5mph
Humidity: 41%   Direction: 20°NNE
Pressure: 30.42"   Gusts: NA
Location:  31.58°N, 84.15°W
Report Text: KABY 281653Z 02004KT 10SM CLR 09/M04 A3042 RMK AO2 SLP302 T00891039 $
Loading
Personal Weather Stations






























Interactive Weather Map New forecast layout! Learn more

10-Day Weather Forecast

Advertisements
Track Severe Weather on mobile